<?xml version="1.0" encoding="UTF-8"?>
<gpx xmlns="http://www.topografix.com/GPX/1/1" xmlns:xsi="http://www.w3.org/2001/XMLSchema-instance" xmlns:topogps="http://www.topo-gps.com/xmlschemas/TopoGPSExtension/v2" version="1.1" creator="Topo GPS 8.0.0 (Android) - https://www.topo-gps.com" xsi:schemaLocation="http://www.topografix.com/GPX/1/1 http://www.topografix.com/GPX/1/1/gpx.xsd http://www.topo-gps.com/xmlschemas/TopoGPSExtension/v2 http://www.topo-gps.com/xmlschemas/TopoGPSExtensionv2.xsd">
<metadata>
<name>08a Weebosch-Kleine Witrijt</name>
<extensions>
<topogps:routetype type="3737"></topogps:routetype>
<topogps:uid>0</topogps:uid>
<topogps:uidversion>0</topogps:uidversion>
</extensions>
</metadata>
<wpt lat="51.307513" lon="5.290949">
<time>2016-01-11T10:01:16Z</time>
<name>&#x27;t Sant</name>
</wpt>
<trk>
<name>08a Weebosch-Kleine Witrijt</name>
<trkseg>
<trkpt lat="51.307418" lon="5.291252">
<ele>0.0</ele>
<time>2016-07-20T00:00:00Z</time>
</trkpt>
<trkpt lat="51.307185" lon="5.291736">
<ele>0.0</ele>
<time>2016-07-20T00:00:30Z</time>
</trkpt>
<trkpt lat="51.307967" lon="5.293556">
<ele>0.0</ele>
<time>2016-07-20T00:02:17Z</time>
</trkpt>
<trkpt lat="51.308695" lon="5.294205">
<ele>0.0</ele>
<time>2016-07-20T00:03:22Z</time>
</trkpt>
<trkpt lat="51.308749" lon="5.294205">
<ele>0.0</ele>
<time>2016-07-20T00:03:26Z</time>
</trkpt>
<trkpt lat="51.309018" lon="5.294595">
<ele>0.0</ele>
<time>2016-07-20T00:03:54Z</time>
</trkpt>
<trkpt lat="51.310392" lon="5.291433">
<ele>0.0</ele>
<time>2016-07-20T00:07:01Z</time>
</trkpt>
<trkpt lat="51.311336" lon="5.290003">
<ele>0.0</ele>
<time>2016-07-20T00:08:42Z</time>
</trkpt>
<trkpt lat="51.311279" lon="5.286290">
<ele>0.0</ele>
<time>2016-07-20T00:11:42Z</time>
</trkpt>
<trkpt lat="51.312304" lon="5.282752">
<ele>0.0</ele>
<time>2016-07-20T00:14:51Z</time>
</trkpt>
<trkpt lat="51.312816" lon="5.282146">
<ele>0.0</ele>
<time>2016-07-20T00:15:40Z</time>
</trkpt>
<trkpt lat="51.313965" lon="5.279676">
<ele>0.0</ele>
<time>2016-07-20T00:18:10Z</time>
</trkpt>
<trkpt lat="51.316104" lon="5.280499">
<ele>0.0</ele>
<time>2016-07-20T00:21:00Z</time>
</trkpt>
<trkpt lat="51.316095" lon="5.280340">
<ele>0.0</ele>
<time>2016-07-20T00:21:08Z</time>
</trkpt>
<trkpt lat="51.316005" lon="5.280413">
<ele>0.0</ele>
<time>2016-07-20T00:21:16Z</time>
</trkpt>
<trkpt lat="51.315987" lon="5.280557">
<ele>0.0</ele>
<time>2016-07-20T00:21:23Z</time>
</trkpt>
<trkpt lat="51.317696" lon="5.278825">
<ele>0.0</ele>
<time>2016-07-20T00:24:00Z</time>
</trkpt>
<trkpt lat="51.315567" lon="5.274319">
<ele>0.0</ele>
<time>2016-07-20T00:28:34Z</time>
</trkpt>
<trkpt lat="51.312860" lon="5.274318">
<ele>0.0</ele>
<time>2016-07-20T00:32:04Z</time>
</trkpt>
<trkpt lat="51.310866" lon="5.274708">
<ele>0.0</ele>
<time>2016-07-20T00:34:40Z</time>
</trkpt>
<trkpt lat="51.305299" lon="5.271965">
<ele>0.0</ele>
<time>2016-07-20T00:42:12Z</time>
</trkpt>
<trkpt lat="51.305018" lon="5.272571">
<ele>0.0</ele>
<time>2016-07-20T00:42:48Z</time>
</trkpt>
<trkpt lat="51.304383" lon="5.276269">
<ele>0.0</ele>
<time>2016-07-20T00:45:54Z</time>
</trkpt>
<trkpt lat="51.303464" lon="5.279662">
<ele>0.0</ele>
<time>2016-07-20T00:48:54Z</time>
</trkpt>
<trkpt lat="51.306581" lon="5.285251">
<ele>0.0</ele>
<time>2016-07-20T00:54:57Z</time>
</trkpt>
<trkpt lat="51.307120" lon="5.287403">
<ele>0.0</ele>
<time>2016-07-20T00:56:49Z</time>
</trkpt>
<trkpt lat="51.307536" lon="5.290263">
<ele>0.0</ele>
<time>2016-07-20T00:59:12Z</time>
</trkpt>
<trkpt lat="51.307472" lon="5.291119">
<ele>0.0</ele>
<time>2016-07-20T00:59:54Z</time>
</trkpt>
</trkseg>
</trk>
</gpx>
